createdAt,value
2018-12-11T00:00:35.612Z,2.87
2018-12-11T00:03:03.275Z,3.57
2018-12-11T00:05:30.962Z,2.57
2018-12-11T00:07:58.512Z,3.50
2018-12-11T00:10:26.078Z,3.37
2018-12-11T00:12:57.176Z,4.23
2018-12-11T00:15:25.621Z,3.33
2018-12-11T00:17:53.180Z,3.33
2018-12-11T00:20:20.739Z,4.63
2018-12-11T00:22:48.531Z,4.13
2018-12-11T00:25:16.368Z,2.77
2018-12-11T00:27:43.907Z,3.17
2018-12-11T00:30:11.809Z,4.27
2018-12-11T00:32:39.382Z,2.77
2018-12-11T00:35:07.017Z,3.43
2018-12-11T00:37:34.567Z,3.00
2018-12-11T00:40:02.116Z,3.37
2018-12-11T00:42:30.733Z,3.90
2018-12-11T00:44:59.415Z,3.10
2018-12-11T00:47:26.960Z,3.43
2018-12-11T00:49:54.520Z,2.60
2018-12-11T00:52:22.079Z,3.17
2018-12-11T00:54:49.646Z,3.07
2018-12-11T00:57:17.609Z,3.30
2018-12-11T00:59:45.156Z,2.97
2018-12-11T01:02:12.711Z,2.87
2018-12-11T01:04:40.296Z,2.70
2018-12-11T01:07:07.857Z,2.83
2018-12-11T01:09:35.425Z,3.00
2018-12-11T01:12:03.819Z,2.93
2018-12-11T01:14:32.711Z,2.47
2018-12-11T01:17:00.345Z,2.33
2018-12-11T01:19:31.109Z,2.37
2018-12-11T01:21:58.651Z,3.10
2018-12-11T01:24:26.275Z,2.50
2018-12-11T01:26:53.820Z,2.63
2018-12-11T01:29:21.372Z,3.13
2018-12-11T01:31:48.935Z,3.40
2018-12-11T01:34:16.486Z,2.30
2018-12-11T01:36:44.041Z,3.93
2018-12-11T01:39:11.587Z,3.13
2018-12-11T01:41:44.041Z,2.97
2018-12-11T01:44:11.927Z,2.77
2018-12-11T01:46:39.680Z,3.03
2018-12-11T01:49:07.231Z,2.70
2018-12-11T01:51:34.802Z,2.80
2018-12-11T01:54:02.336Z,2.83
2018-12-11T01:56:29.883Z,3.60
2018-12-11T01:58:57.437Z,3.53
2018-12-11T02:01:24.996Z,3.47
2018-12-11T02:03:53.253Z,3.00
2018-12-11T02:06:20.810Z,2.87
2018-12-11T02:08:48.356Z,2.77
2018-12-11T02:11:15.897Z,2.93
2018-12-11T02:13:43.460Z,2.77
2018-12-11T02:16:10.998Z,2.83
2018-12-11T02:18:38.543Z,2.73
2018-12-11T02:21:06.112Z,3.20
2018-12-11T02:23:33.662Z,3.13
2018-12-11T02:26:01.207Z,2.70
2018-12-11T02:28:28.766Z,2.57
2018-12-11T02:30:57.300Z,2.73
2018-12-11T02:33:24.861Z,2.90
2018-12-11T02:35:52.436Z,2.53
2018-12-11T02:38:20.064Z,2.77
2018-12-11T02:40:47.810Z,3.67
2018-12-11T02:43:15.662Z,2.37
2018-12-11T02:45:43.207Z,2.50
2018-12-11T02:48:10.760Z,2.70
2018-12-11T02:50:38.322Z,3.50
2018-12-11T02:53:05.864Z,3.07
2018-12-11T02:55:33.407Z,1.60
2018-12-11T02:58:01.886Z,2.00
2018-12-11T03:00:29.619Z,2.47
2018-12-11T03:02:58.126Z,2.30
2018-12-11T03:05:26.911Z,3.13
2018-12-11T03:07:54.479Z,2.77
2018-12-11T03:10:22.070Z,2.63
2018-12-11T03:12:49.735Z,1.77
2018-12-11T03:15:17.507Z,2.67
2018-12-11T03:17:45.065Z,2.80
2018-12-11T03:20:12.611Z,2.40
2018-12-11T03:22:40.155Z,1.87
2018-12-11T03:25:07.798Z,2.27
2018-12-11T03:27:35.355Z,2.10
2018-12-11T03:30:02.906Z,2.40
2018-12-11T03:32:30.462Z,2.77
2018-12-11T03:34:58.040Z,2.90
2018-12-11T03:37:25.595Z,2.40
2018-12-11T03:39:53.140Z,2.80
2018-12-11T03:42:20.696Z,2.17
2018-12-11T03:44:48.251Z,2.40
2018-12-11T03:47:15.799Z,2.47
2018-12-11T03:49:43.371Z,2.80
2018-12-11T04:03:45.440Z,2.90
2018-12-11T04:06:13.000Z,2.37
2018-12-11T04:08:40.564Z,2.83
2018-12-11T04:11:08.118Z,2.23
2018-12-11T04:13:36.080Z,3.30
2018-12-11T04:16:03.629Z,2.43
2018-12-11T04:18:31.187Z,2.83
2018-12-11T04:20:58.864Z,3.13
2018-12-11T04:23:26.975Z,3.47
2018-12-11T04:25:54.532Z,3.63
2018-12-11T04:28:22.092Z,2.93
2018-12-11T04:30:49.642Z,2.40
2018-12-11T04:33:17.588Z,2.70
2018-12-11T04:35:45.989Z,3.47
2018-12-11T04:38:13.528Z,3.00
2018-12-11T04:40:41.095Z,2.10
2018-12-11T04:43:08.660Z,2.70
2018-12-11T04:45:36.217Z,2.60
2018-12-11T04:48:03.788Z,2.73
2018-12-11T04:50:31.367Z,4.30
2018-12-11T04:52:58.923Z,2.53
2018-12-11T04:55:26.476Z,2.80
2018-12-11T04:57:54.034Z,3.07
2018-12-11T05:00:21.576Z,3.00
2018-12-11T05:02:49.136Z,2.50
2018-12-11T05:05:17.061Z,3.00
2018-12-11T05:07:44.620Z,3.13
2018-12-11T05:10:12.497Z,3.17
2018-12-11T05:12:40.849Z,3.00
2018-12-11T05:15:08.419Z,3.57
2018-12-11T05:17:35.984Z,2.43
2018-12-11T05:20:05.809Z,2.73
2018-12-11T05:22:33.366Z,3.07
2018-12-11T05:25:01.022Z,2.60
2018-12-11T05:27:30.466Z,2.37
2018-12-11T05:29:58.361Z,2.73
2018-12-11T05:32:26.255Z,3.00
2018-12-11T05:34:57.211Z,2.67
2018-12-11T05:37:25.860Z,3.07
2018-12-11T05:39:53.804Z,2.93
2018-12-11T05:42:21.364Z,3.27
2018-12-11T05:44:48.929Z,2.57
2018-12-11T05:47:18.856Z,2.80
2018-12-11T05:49:47.324Z,2.27
2018-12-11T05:52:14.885Z,2.90
2018-12-11T05:54:42.444Z,2.33
2018-12-11T05:57:10.005Z,2.33
2018-12-11T05:59:37.561Z,2.87
2018-12-11T06:02:08.128Z,1.90
2018-12-11T06:04:35.690Z,2.30
2018-12-11T06:07:03.264Z,2.87
2018-12-11T06:09:30.825Z,2.67
2018-12-11T06:11:58.373Z,2.33
2018-12-11T06:14:26.067Z,2.50
2018-12-11T06:16:53.644Z,2.40
2018-12-11T06:19:21.202Z,2.77
2018-12-11T06:21:48.764Z,2.23
2018-12-11T06:24:16.331Z,3.87
2018-12-11T06:26:44.229Z,2.03
2018-12-11T06:29:12.297Z,2.50
2018-12-11T06:31:39.868Z,2.63
2018-12-11T06:34:07.434Z,2.27
2018-12-11T06:36:34.998Z,2.10
2018-12-11T06:39:03.752Z,2.63
2018-12-11T06:41:31.646Z,2.73
2018-12-11T06:43:59.208Z,2.20
2018-12-11T06:46:27.625Z,2.23
2018-12-11T06:48:55.441Z,2.40
2018-12-11T06:51:23.403Z,2.73
2018-12-11T06:53:51.696Z,2.10
2018-12-11T06:56:19.265Z,2.53
2018-12-11T06:58:47.152Z,2.60
2018-12-11T07:01:14.709Z,2.57
2018-12-11T07:03:42.267Z,2.57
2018-12-11T07:06:10.028Z,2.87
2018-12-11T07:08:37.878Z,2.87
2018-12-11T07:11:05.437Z,2.37
2018-12-11T07:13:33.763Z,2.47
2018-12-11T07:16:01.333Z,2.40
2018-12-11T07:18:28.883Z,2.33
2018-12-11T07:20:56.652Z,2.73
2018-12-11T07:23:24.237Z,2.80
2018-12-11T07:25:52.791Z,2.93
2018-12-11T07:28:20.341Z,2.70
2018-12-11T07:30:47.896Z,2.37
2018-12-11T07:33:15.456Z,2.50
2018-12-11T07:35:44.965Z,2.90
2018-12-11T07:38:13.287Z,2.87
2018-12-11T07:40:40.847Z,2.73
2018-12-11T07:43:08.525Z,2.83
2018-12-11T07:45:36.685Z,2.90
2018-12-11T07:48:05.874Z,3.87
2018-12-11T07:50:33.668Z,2.93
2018-12-11T07:53:01.225Z,3.10
2018-12-11T07:55:28.781Z,3.60
2018-12-11T07:57:56.338Z,3.43
2018-12-11T08:00:24.120Z,2.80
2018-12-11T08:02:51.996Z,2.90
2018-12-11T08:05:19.556Z,2.87
2018-12-11T08:07:48.710Z,2.77
2018-12-11T08:10:16.267Z,3.30
2018-12-11T08:12:43.825Z,2.90
2018-12-11T08:15:11.442Z,2.70
2018-12-11T08:17:39.683Z,2.67
2018-12-11T08:20:07.348Z,2.57
2018-12-11T08:22:35.561Z,2.33
2018-12-11T08:25:03.158Z,2.10
2018-12-11T08:27:31.563Z,2.30
2018-12-11T08:30:00.460Z,2.53
2018-12-11T08:32:28.187Z,2.87
2018-12-11T08:34:56.094Z,2.30
2018-12-11T08:37:23.652Z,1.90
2018-12-11T08:39:53.155Z,2.10
2018-12-11T08:42:20.709Z,3.37
2018-12-11T08:44:51.334Z,2.20
2018-12-11T08:47:18.458Z,2.07
2018-12-11T08:49:46.987Z,2.37
2018-12-11T08:52:14.557Z,1.97
2018-12-11T08:54:45.086Z,3.27
2018-12-11T08:57:12.645Z,2.37
2018-12-11T08:59:40.244Z,2.60
2018-12-11T09:02:07.800Z,2.60
2018-12-11T09:04:35.355Z,2.37
2018-12-11T09:07:03.526Z,2.67
2018-12-11T09:09:35.480Z,2.77
2018-12-11T09:12:04.601Z,2.70
2018-12-11T09:14:36.261Z,2.63
2018-12-11T09:17:10.058Z,2.47
2018-12-11T09:19:34.817Z,2.27
2018-12-11T09:22:02.394Z,2.30
2018-12-11T09:24:30.018Z,2.30
2018-12-11T09:26:58.066Z,2.50
2018-12-11T09:29:25.665Z,1.97
2018-12-11T09:31:53.322Z,2.70
2018-12-11T09:34:20.894Z,2.23
2018-12-11T09:36:48.646Z,2.10
2018-12-11T09:39:17.808Z,1.90
2018-12-11T09:41:45.369Z,2.33
2018-12-11T09:44:13.269Z,2.53
2018-12-11T09:46:41.694Z,2.50
2018-12-11T09:49:09.245Z,2.60
2018-12-11T09:51:38.687Z,2.87
2018-12-11T09:54:06.262Z,2.93
2018-12-11T09:56:35.755Z,2.23
2018-12-11T09:59:03.322Z,2.97
2018-12-11T10:01:31.592Z,2.57
2018-12-11T10:04:00.359Z,3.20
2018-12-11T10:06:27.918Z,1.90
2018-12-11T10:08:58.099Z,2.67
2018-12-11T10:11:25.712Z,3.03
2018-12-11T10:13:54.710Z,2.53
2018-12-11T10:16:23.027Z,2.90
2018-12-11T10:18:52.376Z,2.17
2018-12-11T10:21:19.949Z,2.67
2018-12-11T10:23:48.639Z,2.50
2018-12-11T10:26:16.217Z,3.10
2018-12-11T10:28:44.568Z,3.23
2018-12-11T10:31:13.189Z,2.90
2018-12-11T10:36:17.498Z,2.70
2018-12-11T10:38:49.271Z,2.90
2018-12-11T10:41:17.540Z,3.00
2018-12-11T10:43:45.771Z,2.77
2018-12-11T10:46:14.435Z,2.23
2018-12-11T10:48:42.071Z,2.23
2018-12-11T10:51:10.025Z,2.20
2018-12-11T10:53:37.771Z,2.40
2018-12-11T10:56:05.552Z,2.00
2018-12-11T10:58:33.497Z,2.30
2018-12-11T11:01:07.807Z,2.20
2018-12-11T11:03:35.457Z,1.67
2018-12-11T11:06:03.582Z,2.20
2018-12-11T11:08:31.464Z,1.87
2018-12-11T11:10:59.739Z,1.70
2018-12-11T11:13:27.470Z,1.93
2018-12-11T11:15:55.491Z,2.17
2018-12-11T11:18:23.144Z,1.80
2018-12-11T11:20:51.872Z,2.50
2018-12-11T11:23:19.524Z,2.70
2018-12-11T11:25:47.533Z,2.60
2018-12-11T11:28:15.189Z,2.80
2018-12-11T11:30:43.855Z,2.60
2018-12-11T11:33:11.511Z,2.50
2018-12-11T11:35:39.171Z,2.60
2018-12-11T11:38:07.143Z,2.97
2018-12-11T11:40:35.657Z,2.30
2018-12-11T11:43:04.670Z,2.70
2018-12-11T11:45:35.177Z,2.37
2018-12-11T11:48:04.062Z,2.63
2018-12-11T11:50:32.963Z,3.30
2018-12-11T11:53:02.468Z,2.70
2018-12-11T11:55:31.168Z,2.20
2018-12-11T11:57:59.907Z,2.37
2018-12-11T12:00:27.564Z,3.03
2018-12-11T12:02:56.151Z,2.53
2018-12-11T12:05:24.939Z,2.97
2018-12-11T12:07:53.913Z,3.17
2018-12-11T12:10:21.699Z,3.13
2018-12-11T12:12:49.337Z,2.63
2018-12-11T12:15:17.982Z,3.17
2018-12-11T12:17:45.716Z,3.00
2018-12-11T12:20:14.603Z,2.97
2018-12-11T12:22:46.301Z,2.63
2018-12-11T12:25:14.820Z,3.70
2018-12-11T12:27:42.504Z,2.70
2018-12-11T12:30:10.365Z,4.40
2018-12-11T12:32:38.286Z,3.30
2018-12-11T12:35:07.738Z,3.00
2018-12-11T12:37:36.867Z,3.07
2018-12-11T12:40:05.172Z,3.03
2018-12-11T12:42:33.763Z,3.23
2018-12-11T12:45:02.417Z,2.83
2018-12-11T12:47:36.975Z,3.20
2018-12-11T12:50:05.087Z,4.03
2018-12-11T12:52:32.945Z,3.43
2018-12-11T12:55:04.309Z,3.60
2018-12-11T12:57:32.164Z,2.73
2018-12-11T12:59:59.796Z,3.00
2018-12-11T13:02:27.445Z,3.83
2018-12-11T13:04:57.607Z,2.53
2018-12-11T13:07:27.276Z,2.50
2018-12-11T13:09:55.224Z,2.77
2018-12-11T13:12:23.284Z,2.57
2018-12-11T13:14:51.670Z,2.80
2018-12-11T13:17:20.315Z,2.87
2018-12-11T13:19:48.023Z,3.23
2018-12-11T13:22:16.252Z,2.50
2018-12-11T13:24:43.912Z,2.93
2018-12-11T13:27:12.392Z,3.60
2018-12-11T13:29:41.218Z,3.07
2018-12-11T13:32:08.884Z,1.90
2018-12-11T13:34:36.611Z,3.27
2018-12-11T13:37:05.502Z,3.20
2018-12-11T13:39:35.595Z,3.17
2018-12-11T13:42:05.336Z,2.40
2018-12-11T13:44:32.988Z,2.60
2018-12-11T13:47:01.131Z,2.97
2018-12-11T13:49:29.028Z,3.07
2018-12-11T13:51:56.847Z,3.30
2018-12-11T13:54:28.093Z,1.90
2018-12-11T13:56:55.837Z,2.97
2018-12-11T13:59:25.339Z,3.03
2018-12-11T14:01:53.073Z,3.40
2018-12-11T14:04:21.792Z,2.73
2018-12-11T14:06:50.686Z,2.87
2018-12-11T14:09:24.314Z,2.27
2018-12-11T14:11:52.617Z,2.33
2018-12-11T14:14:21.870Z,2.53
2018-12-11T14:16:49.723Z,2.57
2018-12-11T14:19:19.307Z,3.50
2018-12-11T14:21:47.680Z,2.70
2018-12-11T14:24:15.319Z,3.63
2018-12-11T14:26:44.031Z,2.30
2018-12-11T14:29:11.675Z,2.47
2018-12-11T14:31:39.692Z,2.33
2018-12-11T14:34:07.337Z,2.43
2018-12-11T14:36:35.123Z,2.70
2018-12-11T14:39:04.421Z,3.10
2018-12-11T14:41:33.276Z,3.10
2018-12-11T14:44:00.920Z,2.50
2018-12-11T14:46:29.359Z,2.40
2018-12-11T14:48:57.250Z,2.67
2018-12-11T14:51:25.500Z,2.70
2018-12-11T14:53:53.376Z,2.20
2018-12-11T14:56:21.502Z,2.67
2018-12-11T14:58:49.307Z,2.70
2018-12-11T15:01:17.844Z,4.00
2018-12-11T15:03:46.199Z,2.57
2018-12-11T15:06:14.298Z,3.27
2018-12-11T15:08:41.945Z,3.67
2018-12-11T15:11:10.446Z,3.03
2018-12-11T15:13:38.072Z,2.83
2018-12-11T15:16:07.233Z,3.53
2018-12-11T15:18:35.637Z,2.67
2018-12-11T15:21:05.081Z,3.27
2018-12-11T15:23:33.363Z,2.97
2018-12-11T15:26:01.166Z,3.90
2018-12-11T15:28:30.951Z,3.30
2018-12-11T15:31:09.703Z,2.40
2018-12-11T15:33:37.372Z,2.80
2018-12-11T15:36:05.245Z,3.40
2018-12-11T15:38:34.803Z,2.73
2018-12-11T15:41:03.503Z,3.27
2018-12-11T15:43:32.983Z,3.17
2018-12-11T15:46:01.615Z,3.47
2018-12-11T15:48:31.214Z,2.87
2018-12-11T15:50:59.478Z,3.43
2018-12-11T15:53:28.056Z,3.63
2018-12-11T15:55:56.521Z,2.77
2018-12-11T15:58:25.811Z,3.33
2018-12-11T16:00:54.425Z,2.80
2018-12-11T16:03:22.280Z,2.83
2018-12-11T16:05:50.984Z,2.93
2018-12-11T16:08:19.375Z,3.20
2018-12-11T16:10:48.211Z,3.27
2018-12-11T16:13:16.830Z,2.90
2018-12-11T16:15:46.324Z,2.70
2018-12-11T16:18:13.991Z,2.90
2018-12-11T16:20:42.356Z,2.60
2018-12-11T16:23:10.981Z,2.53
2018-12-11T16:25:39.874Z,3.57
2018-12-11T16:28:07.539Z,2.57
2018-12-11T16:30:35.248Z,3.23
2018-12-11T16:33:03.939Z,2.70
2018-12-11T16:35:32.656Z,2.87
2018-12-11T16:38:01.266Z,2.77
2018-12-11T16:40:29.176Z,2.40
2018-12-11T16:42:57.578Z,3.10
2018-12-11T16:45:26.743Z,2.77
2018-12-11T16:47:55.879Z,2.77
2018-12-11T16:50:23.730Z,3.43
2018-12-11T16:52:52.297Z,3.47
2018-12-11T16:55:21.144Z,3.57
2018-12-11T16:57:51.268Z,3.13
2018-12-11T17:00:19.034Z,2.83
2018-12-11T17:02:46.684Z,2.40
2018-12-11T17:05:14.946Z,2.60
2018-12-11T17:07:43.361Z,2.50
2018-12-11T17:10:11.022Z,2.97
2018-12-11T17:12:39.505Z,2.80
2018-12-11T17:15:08.747Z,3.07
2018-12-11T17:17:36.488Z,2.60
2018-12-11T17:20:05.628Z,2.53
2018-12-11T17:22:34.267Z,3.13
2018-12-11T17:25:02.888Z,3.50
2018-12-11T17:27:31.452Z,2.60
2018-12-11T17:30:00.881Z,2.47
2018-12-11T17:32:28.744Z,2.40
2018-12-11T17:34:57.240Z,2.63
2018-12-11T17:37:25.876Z,2.83
2018-12-11T17:39:54.527Z,3.27
2018-12-11T17:42:23.034Z,2.43
2018-12-11T17:44:50.705Z,2.83
2018-12-11T17:47:19.319Z,3.17
2018-12-11T17:49:47.464Z,3.67
2018-12-11T17:52:18.941Z,2.47
2018-12-11T17:54:48.839Z,2.87
2018-12-11T17:57:19.190Z,3.93
2018-12-11T17:59:48.453Z,3.70
2018-12-11T18:02:20.220Z,3.73
2018-12-11T18:04:48.798Z,3.50
2018-12-11T18:07:21.394Z,3.60
2018-12-11T18:09:51.496Z,3.83
2018-12-11T18:12:19.361Z,4.00
2018-12-11T18:14:48.374Z,4.20
2018-12-11T18:17:16.735Z,4.20
2018-12-11T18:19:44.745Z,3.90
2018-12-11T18:22:12.671Z,4.00
2018-12-11T18:24:40.456Z,4.27
2018-12-11T18:27:09.232Z,4.20
2018-12-11T18:29:38.485Z,3.13
2018-12-11T18:32:06.389Z,3.67
2018-12-11T18:34:38.354Z,3.90
2018-12-11T18:37:09.321Z,3.93
2018-12-11T18:39:36.987Z,5.60
2018-12-11T18:42:04.715Z,4.47
2018-12-11T18:44:34.633Z,4.00
2018-12-11T18:47:05.980Z,3.43
2018-12-11T18:49:33.643Z,3.97
2018-12-11T18:52:01.301Z,3.67
2018-12-11T18:54:29.924Z,3.60
2018-12-11T18:57:01.514Z,3.23
2018-12-11T18:59:29.820Z,2.70
2018-12-11T19:02:01.278Z,2.90
2018-12-11T19:04:31.420Z,2.80
2018-12-11T19:07:01.609Z,3.80
2018-12-11T19:09:30.597Z,3.23
2018-12-11T19:11:59.478Z,4.07
2018-12-11T19:14:28.896Z,2.63
2018-12-11T19:16:57.786Z,2.53
2018-12-11T19:19:28.100Z,2.63
2018-12-11T19:21:58.393Z,2.90
2018-12-11T19:24:28.363Z,2.40
2018-12-11T19:26:57.709Z,1.90
2018-12-11T19:29:26.540Z,2.70
2018-12-11T19:31:56.541Z,2.83
2018-12-11T19:34:24.252Z,1.80
2018-12-11T19:36:59.192Z,2.70
2018-12-11T19:39:29.715Z,2.03
2018-12-11T19:41:57.584Z,2.43
2018-12-11T19:44:27.771Z,2.23
2018-12-11T19:46:56.249Z,2.20
2018-12-11T19:49:24.668Z,2.30
2018-12-11T19:51:54.296Z,2.10
2018-12-11T19:54:22.722Z,3.10
2018-12-11T19:56:50.617Z,2.53
2018-12-11T19:59:18.274Z,3.33
2018-12-11T20:01:46.380Z,4.20
2018-12-11T20:04:15.532Z,3.03
2018-12-11T20:06:44.098Z,3.13
2018-12-11T20:09:12.243Z,2.70
2018-12-11T20:11:53.153Z,2.63
2018-12-11T20:14:22.652Z,3.43
2018-12-11T20:16:51.296Z,2.67
2018-12-11T20:19:20.634Z,3.40
2018-12-11T20:21:48.312Z,3.53
2018-12-11T20:24:16.574Z,3.50
2018-12-11T20:26:45.263Z,3.20
2018-12-11T20:29:13.739Z,4.10
2018-12-11T20:31:42.631Z,4.47
2018-12-11T20:34:11.468Z,4.13
2018-12-11T20:36:39.591Z,4.10
2018-12-11T20:39:07.903Z,3.47
2018-12-11T20:41:36.498Z,3.37
2018-12-11T20:44:07.259Z,3.40
2018-12-11T20:46:37.947Z,3.63
2018-12-11T20:49:05.687Z,4.63
2018-12-11T20:51:34.625Z,3.00
2018-12-11T20:54:06.243Z,2.87
2018-12-11T20:56:33.923Z,3.30
2018-12-11T20:59:01.687Z,3.20
2018-12-11T21:01:31.071Z,3.17
2018-12-11T21:04:07.189Z,3.00
2018-12-11T21:06:37.790Z,3.47
2018-12-11T21:09:08.531Z,2.80
2018-12-11T21:11:39.933Z,2.40
2018-12-11T21:14:08.416Z,2.60
2018-12-11T21:16:38.326Z,3.80
2018-12-11T21:19:08.789Z,2.40
2018-12-11T21:21:36.930Z,2.87
2018-12-11T21:24:04.801Z,2.63
2018-12-11T21:26:33.895Z,2.27
2018-12-11T21:29:03.399Z,2.13
2018-12-11T21:31:31.467Z,2.70
2018-12-11T21:33:59.361Z,2.40
2018-12-11T21:36:27.336Z,2.40
2018-12-11T21:38:55.275Z,2.83
2018-12-11T21:41:25.801Z,2.47
2018-12-11T21:43:54.281Z,2.30
2018-12-11T21:46:22.559Z,3.00
2018-12-11T21:48:51.244Z,2.83
2018-12-11T21:51:20.956Z,2.73
2018-12-11T21:53:49.445Z,2.50
2018-12-11T21:56:18.724Z,3.17
2018-12-11T21:58:46.604Z,4.13
2018-12-11T22:01:14.287Z,3.37
2018-12-11T22:03:42.076Z,4.30
2018-12-11T22:06:10.896Z,3.20
2018-12-11T22:08:39.833Z,3.30
2018-12-11T22:11:07.577Z,2.97
2018-12-11T22:13:35.440Z,3.37
2018-12-11T22:16:07.407Z,3.63
2018-12-11T22:18:36.523Z,4.27
2018-12-11T22:21:04.364Z,2.73
2018-12-11T22:23:32.232Z,3.30
2018-12-11T22:26:00.659Z,3.80
2018-12-11T22:28:28.580Z,4.23
2018-12-11T22:30:58.251Z,3.60
2018-12-11T22:33:27.112Z,3.37
2018-12-11T22:35:55.458Z,4.07
2018-12-11T22:38:24.347Z,3.60
2018-12-11T22:40:52.422Z,3.77
2018-12-11T22:43:20.461Z,3.50
2018-12-11T22:45:48.973Z,4.03
2018-12-11T22:48:16.772Z,4.70
2018-12-11T22:50:44.789Z,4.27
2018-12-11T22:53:12.979Z,5.23
2018-12-11T22:55:40.848Z,5.47
2018-12-11T22:58:08.644Z,3.80
2018-12-11T23:00:37.392Z,4.33
2018-12-11T23:03:06.087Z,3.70
2018-12-11T23:05:33.953Z,4.03
2018-12-11T23:08:01.599Z,4.20
2018-12-11T23:10:29.275Z,4.27
2018-12-11T23:12:56.952Z,4.17
2018-12-11T23:15:24.604Z,4.37
2018-12-11T23:17:52.464Z,4.03
2018-12-11T23:20:20.252Z,3.90
2018-12-11T23:22:48.612Z,3.90
2018-12-11T23:25:16.280Z,3.80
2018-12-11T23:27:44.099Z,4.30
2018-12-11T23:30:12.127Z,3.97
2018-12-11T23:32:39.788Z,4.50
2018-12-11T23:35:08.279Z,4.40
2018-12-11T23:37:35.944Z,3.87
2018-12-11T23:40:05.266Z,4.40
2018-12-11T23:42:34.104Z,4.70
2018-12-11T23:45:02.788Z,4.27
2018-12-11T23:47:30.662Z,4.20
2018-12-11T23:49:58.295Z,4.67
2018-12-11T23:52:26.189Z,4.53
2018-12-11T23:54:54.049Z,3.97
2018-12-11T23:57:22.817Z,4.37
2018-12-11T23:59:54.297Z,4.47
